Time,TemperatureF,DewpointF,PressureIn,WindDirection,WindDirectionDegrees,WindSpeedMPH,WindSpeedGustMPH,Humidity,HourlyPrecipIn,Conditions,Clouds,dailyrainin,SolarRadiationWatts/m^2,SoftwareType,DateUTC
2013-01-08 00:00:00,30.0,15.0,-100.00,WSW,249,3.0,7.0,53,-99.99,,,0.01,-0.200000,,2013-01-08 08:00:00,
2013-01-08 00:53:00,30.0,15.0,-100.00,WSW,249,3.0,7.0,53,-99.99,,,0.01,-0.200000,,2013-01-08 08:53:00,
2013-01-08 01:00:00,29.0,14.0,-100.00,SSE,150,4.0,7.0,54,-99.99,,,0.01,-0.200000,,2013-01-08 09:00:00,
2013-01-08 01:52:00,29.0,14.0,-100.00,SSE,150,4.0,7.0,54,-99.99,,,0.01,-0.200000,,2013-01-08 09:52:00,
2013-01-08 02:00:00,29.0,14.0,-100.00,SSE,154,2.0,6.0,52,-99.99,,,0.00,-0.200000,,2013-01-08 10:00:00,
2013-01-08 02:52:00,29.0,14.0,-100.00,SSE,154,2.0,6.0,52,-99.99,,,0.00,-0.200000,,2013-01-08 10:52:00,
2013-01-08 03:00:00,27.0,18.0,-100.00,SE,132,4.0,8.0,67,-99.99,,,0.00,-0.200000,,2013-01-08 11:00:00,
2013-01-08 03:53:00,27.0,18.0,-100.00,SE,132,4.0,8.0,67,-99.99,,,0.00,-0.200000,,2013-01-08 11:53:00,
2013-01-08 04:00:00,27.0,19.0,-100.00,SSE,162,6.0,9.0,71,-99.99,,,0.00,-0.200000,,2013-01-08 12:00:00,
2013-01-08 04:53:00,27.0,19.0,-100.00,SSE,162,6.0,9.0,71,-99.99,,,0.00,-0.200000,,2013-01-08 12:53:00,
2013-01-08 05:00:00,28.0,20.0,-100.00,SE,125,6.0,9.0,71,-99.99,,,0.01,-0.200000,,2013-01-08 13:00:00,
2013-01-08 05:53:00,28.0,20.0,-100.00,SE,125,6.0,9.0,71,-99.99,,,0.01,-0.200000,,2013-01-08 13:53:00,
2013-01-08 06:00:00,26.0,20.0,-100.00,ESE,117,6.0,10.0,77,-99.99,,,0.00,5.100000,,2013-01-08 14:00:00,
2013-01-08 06:53:00,26.0,20.0,-100.00,ESE,117,6.0,10.0,77,-99.99,,,0.00,5.100000,,2013-01-08 14:53:00,
2013-01-08 07:00:00,26.0,23.0,-100.00,South,176,4.0,6.0,89,-99.99,,,0.00,-0.200000,,2013-01-08 15:00:00,
2013-01-08 07:53:00,26.0,23.0,-100.00,South,176,4.0,6.0,89,-99.99,,,0.00,-0.200000,,2013-01-08 15:53:00,
2013-01-08 08:00:00,26.0,24.0,-100.00,East,97,2.0,5.0,91,-99.99,,,0.00,0.200000,,2013-01-08 16:00:00,
2013-01-08 08:53:00,26.0,24.0,-100.00,East,97,2.0,5.0,91,-99.99,,,0.00,0.200000,,2013-01-08 16:53:00,
2013-01-08 09:00:00,26.0,25.0,-100.00,NNE,16,0.0,1.0,96,-99.99,,,0.00,11.700000,,2013-01-08 17:00:00,
2013-01-08 09:53:00,26.0,25.0,-100.00,NNE,16,0.0,1.0,96,-99.99,,,0.00,11.700000,,2013-01-08 17:53:00,
2013-01-08 10:00:00,27.0,26.0,-100.00,SE,129,1.0,3.0,96,-99.99,,,0.00,19.600000,,2013-01-08 18:00:00,
2013-01-08 10:53:00,27.0,26.0,-100.00,SE,129,1.0,3.0,96,-99.99,,,0.00,19.600000,,2013-01-08 18:53:00,
2013-01-08 11:00:00,28.0,26.0,-100.00,NNE,33,2.0,5.0,94,-99.99,,,0.01,35.000000,,2013-01-08 19:00:00,
2013-01-08 11:53:00,28.0,26.0,-100.00,NNE,33,2.0,5.0,94,-99.99,,,0.01,35.000000,,2013-01-08 19:53:00,
2013-01-08 12:00:00,28.0,26.0,-100.00,SE,132,5.0,7.0,93,-99.99,,,0.01,54.700001,,2013-01-08 20:00:00,
2013-01-08 12:53:00,28.0,26.0,-100.00,SE,132,5.0,7.0,93,-99.99,,,0.01,54.700001,,2013-01-08 20:53:00,
2013-01-08 13:00:00,29.0,27.0,-100.00,South,188,5.0,11.0,93,-99.99,,,0.01,57.400002,,2013-01-08 21:00:00,
2013-01-08 13:53:00,29.0,27.0,-100.00,South,188,5.0,11.0,93,-99.99,,,0.01,57.400002,,2013-01-08 21:53:00,
2013-01-08 14:00:00,29.0,28.0,-100.00,SSE,153,8.0,11.0,95,-99.99,,,-99.99,34.099998,,2013-01-08 22:00:00,
2013-01-08 14:53:00,29.0,28.0,-100.00,SSE,153,8.0,11.0,95,-99.99,,,-99.99,34.099998,,2013-01-08 22:53:00,
2013-01-08 15:00:00,33.0,32.0,-100.00,SSE,165,8.0,11.0,98,-99.99,,,0.01,24.000000,,2013-01-08 23:00:00,
2013-01-08 15:53:00,33.0,32.0,-100.00,SSE,165,8.0,11.0,98,-99.99,,,0.01,24.000000,,2013-01-08 23:53:00,
2013-01-08 16:00:00,33.0,33.0,-100.00,SSW,201,10.0,14.0,99,-99.99,,,0.01,7.700000,,2013-01-09 00:00:00,
2013-01-08 16:53:00,33.0,33.0,-100.00,SSW,201,10.0,14.0,99,-99.99,,,0.01,7.700000,,2013-01-09 00:53:00,
2013-01-08 17:00:00,34.0,34.0,-100.00,South,186,10.0,14.0,100,-99.99,,,0.01,1.100000,,2013-01-09 01:00:00,
2013-01-08 17:52:00,34.0,34.0,-100.00,South,186,10.0,14.0,100,-99.99,,,0.01,1.100000,,2013-01-09 01:52:00,
2013-01-08 18:00:00,34.0,34.0,-100.00,SSW,193,10.0,14.0,100,-99.99,,,0.00,-0.200000,,2013-01-09 02:00:00,
2013-01-08 18:53:00,34.0,34.0,-100.00,SSW,193,10.0,14.0,100,-99.99,,,0.00,-0.200000,,2013-01-09 02:53:00,
2013-01-08 19:00:00,33.0,33.0,-100.00,SE,145,10.0,14.0,100,-99.99,,,0.01,-0.200000,,2013-01-09 03:00:00,
2013-01-08 19:53:00,33.0,33.0,-100.00,SE,145,10.0,14.0,100,-99.99,,,0.01,-0.200000,,2013-01-09 03:53:00,
2013-01-08 20:00:00,33.0,33.0,-100.00,SSE,153,11.0,15.0,100,-99.99,,,0.01,-0.200000,,2013-01-09 04:00:00,
2013-01-08 20:52:00,33.0,33.0,-100.00,SSE,153,11.0,15.0,100,-99.99,,,0.01,-0.200000,,2013-01-09 04:52:00,
2013-01-08 21:00:00,34.0,34.0,-100.00,South,187,10.0,13.0,99,-99.99,,,0.01,-0.200000,,2013-01-09 05:00:00,
2013-01-08 21:52:00,34.0,34.0,-100.00,South,187,10.0,13.0,99,-99.99,,,0.01,-0.200000,,2013-01-09 05:52:00,
2013-01-08 22:00:00,34.0,33.0,-100.00,SSE,147,9.0,12.0,98,-99.99,,,0.01,-0.200000,,2013-01-09 06:00:00,
2013-01-08 22:52:00,34.0,33.0,-100.00,SSE,147,9.0,12.0,98,-99.99,,,0.01,-0.200000,,2013-01-09 06:52:00,
2013-01-08 23:00:00,34.0,33.0,-100.00,SSE,147,10.0,13.0,97,-99.99,,,0.01,-0.200000,,2013-01-09 07:00:00,
2013-01-08 23:52:00,34.0,33.0,-100.00,SSE,147,10.0,13.0,97,-99.99,,,0.01,-0.200000,,2013-01-09 07:52:00,